CST,Max TemperatureF,Mean TemperatureF,Min TemperatureF,Max Dew PointF,MeanDew PointF,Min DewpointF,Max Humidity, Mean Humidity, Min Humidity, Max Sea Level PressureIn, Mean Sea Level PressureIn, Min Sea Level PressureIn, Max VisibilityMiles, Mean VisibilityMiles, Min VisibilityMiles, Max Wind SpeedMPH, Mean Wind SpeedMPH, Max Gust SpeedMPH,PrecipitationIn, CloudCover, Events, WindDirDegrees
2014-1-1,1,-5,-11,-8,-12,-17,84,65,51,30.47,30.42,30.37,10,10,10,7,4,,0.00,7,,44
2014-1-2,-4,-12,-20,-13,-18,-27,84,74,65,30.52,30.43,30.25,10,10,5,9,3,,0.00,0,,257
2014-1-3,35,15,-5,30,12,-13,92,79,66,30.22,29.64,29.34,10,8,1,18,13,28,0.01,6,Snow,169
2014-1-4,37,16,-5,32,0,-15,86,73,62,30.32,30.01,29.39,10,9,1,37,22,46,0.00,3,Snow,331
2014-1-5,-5,-12,-18,-15,-21,-27,84,66,49,30.46,30.41,30.31,10,9,3,28,12,34,0.00,1,,311
2014-1-6,-9,-14,-20,-17,-24,-29,77,64,54,30.40,30.31,30.17,10,10,7,22,15,23,0.00,0,,293
2014-1-7,6,-2,-11,-4,-11,-18,85,69,52,30.28,30.16,30.08,10,10,10,10,4,,0.00,1,,292
2014-1-8,6,-8,-20,0,-13,-27,84,74,61,30.46,30.37,30.28,10,10,7,13,3,17,0.00,2,Snow,163
2014-1-9,26,16,6,19,12,0,86,74,64,30.27,29.96,29.73,10,10,10,20,13,26,0.00,2,,160
2014-1-10,35,26,15,30,25,14,100,87,75,29.73,29.57,29.50,10,5,0,13,9,17,0.00,4,Fog,183
2014-1-11,35,24,12,27,22,10,100,85,70,29.69,29.60,29.49,10,10,7,23,11,29,0.00,3,,270
2014-1-12,41,34,28,32,28,23,93,77,65,29.55,29.40,29.26,10,10,10,14,9,16,0.00,1,,227
2014-1-13,33,25,17,28,22,12,93,81,64,29.71,29.61,29.47,10,9,2,22,12,29,0.00,3,Snow,257
2014-1-14,32,22,12,30,14,7,93,82,73,30.21,29.97,29.49,10,5,0,33,21,41,0.00,8,Snow,329
2014-1-15,39,18,-2,30,10,-8,86,78,61,30.19,29.82,29.43,10,10,1,25,9,32,0.00,2,Snow,226
2014-1-16,39,21,3,32,9,-6,87,77,65,30.05,29.75,29.42,10,5,0,43,27,50,0.00,6,Snow,330
2014-1-17,21,10,-2,16,-1,-9,80,68,49,30.12,29.98,29.55,10,10,7,26,14,34,0.00,2,Snow,284
2014-1-18,35,25,15,34,17,10,93,83,68,30.00,29.74,29.40,10,8,2,23,12,29,0.00,4,Snow,293
2014-1-19,39,30,21,30,25,18,93,80,65,29.76,29.60,29.46,10,10,10,25,13,31,0.02,1,,276
2014-1-20,28,7,-14,25,6,-20,93,83,70,30.56,30.14,29.76,10,6,0,32,13,39,0.00,6,Snow,342
2014-1-21,14,-2,-18,9,-9,-26,85,75,60,30.56,30.23,29.98,10,8,1,21,7,28,0.01,4,Snow,187
2014-1-22,12,2,-9,9,-6,-17,85,78,71,30.62,30.29,30.00,10,4,0,38,21,43,0.00,8,Snow,333
2014-1-23,15,-2,-16,1,-12,-22,84,69,53,30.76,30.56,30.01,10,9,0,24,12,29,0.00,1,Snow,261
2014-1-24,37,27,17,34,22,1,93,75,49,29.99,29.70,29.53,10,9,2,32,16,43,0.19,6,Rain-Snow,280
2014-1-25,19,10,1,12,0,-8,92,66,48,30.04,29.82,29.38,10,8,1,32,18,43,0.00,3,Snow,337
2014-1-26,21,7,-7,18,5,-15,93,81,71,30.24,29.71,29.38,10,4,0,38,18,48,0.00,8,Snow,326
2014-1-27,-5,-10,-14,-13,-17,-20,84,70,59,30.47,30.40,30.24,10,6,0,25,17,39,0.01,4,Snow,304
2014-1-28,3,-6,-14,-9,-15,-20,84,69,51,30.38,30.26,30.08,10,10,10,16,10,,0.00,0,,262
2014-1-29,35,14,-7,18,3,-13,85,68,41,30.07,29.74,29.54,10,10,10,20,7,24,0.00,0,,202
2014-1-30,17,3,-11,12,0,-17,86,78,66,30.08,29.80,29.50,10,6,1,26,13,33,0.00,5,Snow,336
2014-1-31,14,-1,-16,3,-7,-22,85,74,62,30.09,30.01,29.87,10,10,10,12,6,,0.00,1,,202